Aeroporto :
LOGIN :

Iscrizione | Disclaimer

   EN    FR    IT 

 










Sommario :    VFR   VFR Marginale   IFR   IFR Intensivo   IFR Molto Intensivo
Visibilità : 
Base nubi : 
>= 8 km
>= 3000ft
5 / 8 km
1000 / 3000 ft
1500m / 5 km
500 / 1000 ft
800 / 1500m
200 / 500 ft
< 800m
< 200 ft
Simboli :   Temporali  Nebbia  Neve Forte  Precipitazioni Forti  Vento > 20 kt
SIGMETs :   Varie  Temporali  Ghiacco  Turbolenza  Onda orograficha  Ceneri Vulcaniche







- Altitudine del aeroporto : 302 ft
- Carte del aeroporto


LFPM - Melun Villaroche

ULTIMO METAR :
  • 172030Z AUTO 36005KT CAVOK 21/08 Q1013

METARs OBSOLETI :
  • 172000Z AUTO 35005KT CAVOK 22/07 Q1012
  • 171930Z AUTO 32005KT CAVOK 23/08 Q1012
  • 171900Z AUTO 32006KT CAVOK 25/08 Q1012
  • 171830Z AUTO 30008KT CAVOK 26/06 Q1012
  • 171800Z AUTO 29008KT CAVOK 28/07 Q1012

Previsioni scadute.
ATIS : +33 1 64 14 28 44
Nessun NOTAM noto per questo aeroporto.



MetMap, La meteo Aeronautica in un colpo d'occhio ! - Copyright ORBIFLY Dicembre 2007 - Disclaimer

ORBIFLY MET'MAP TEAM :

Programmazione e sviluppo : Alexandra Zaïnal
Concezione e sviluppo : Baudouin d'Aumeries
Co-Programmazione e sviluppo : Marc-Olivier Méhu
Supporto tecnico e logistico : Manuel Goepfert
Aiuto per la traduzione : Arnaldo La Scala

Contatto : metmap@orbifly.com




FONTI E CREDITI :

   NOAA